• Join FlightAware (Why Join?)
  • Login
  • US Flag 
03:06AM EDT


 

Airport Tracker/Info


-or-


 

Live Flight TrackerFlight Track Log ✈ DAL6115 ✈ 26-Apr-2013 ✈ KJFK - KROC

Flight Track Log - Related Links

Times and Time Zones

All times are in EDT time to prevent confusion due to time zone crossing. See the DAL6115 flight status page for this flight to view local times or setup timezone preferences in your user account.

Time Position Orientation Groundspeed Altitude Reporting Facility
EDT Latitude Longitude Course Direction KTS MPH feet Rate Location/Type
10:01AM 40.6667 -73.7500 316° Northwest 179 206 2,100  Level New York TRACON
10:02AM 40.6500 -73.6667 105° East 202 232 4,800 2,700 Climbing New York TRACON
10:03AM 40.8167 -74.0281 270° West  Level FlightAware Approximate
10:03AM 40.6500 -73.6000 90° East 234 269 7,500  Level New York TRACON
10:03AM 40.7000 -73.6000 360° North 230 265 9,200 1,800 Climbing New York TRACON
10:04AM 40.8784 -74.1155 315° West  Level FlightAware Approximate
10:04AM 40.7833 -73.5833 North 283 326 11,000  Level New York TRACON
10:05AM 40.9434 -74.2009 316° Northwest  Level FlightAware Approximate
10:05AM 40.8500 -73.6000 349° North 310 357 12,500  Level New York TRACON
10:06AM 41.0090 -74.2854 316° Northwest  Level FlightAware Approximate
10:07AM 40.9167 -73.7000 311° West 301 346 14,800  Level New York TRACON
10:08AM 40.9667 -73.7833 308° West 308 354 16,500 600 Climbing New York TRACON
10:10AM 41.0653 -74.0019 301° West 296 341 17,000 120 Climbing New York Center
10:11AM 41.0900 -74.0911 290° West 282 325 17,000  Level New York Center
10:12AM 41.1200 -74.2000 290° West 282 325 17,000  Level New York Center
10:13AM 41.1447 -74.2867 291° West 282 325 17,000 300 Level New York Center
10:14AM 41.1767 -74.3958 291° West 282 325 17,700 720 Climbing New York Center
10:15AM 41.2050 -74.4911 292° West 304 350 18,500 1,020 Climbing New York Center
10:16AM 41.2392 -74.5925 294° West 309 356 19,800 1,260 Climbing New York Center
10:17AM 41.3006 -74.6897 310° West 321 369 21,100 1,080 Climbing New York Center
10:18AM 41.3575 -74.7953 306° West 342 394 22,000 420 Climbing New York Center
10:19AM 41.4228 -74.8989 310° West 358 412 22,000  Level New York Center
10:20AM 41.4897 -75.0083 309° West 363 418 22,000  Level New York Center
10:21AM 41.5544 -75.1178 308° West 369 425 22,000  Level New York Center
10:22AM 41.6017 -75.2456 296° West 374 430 22,000  Level New York Center
10:23AM 41.6383 -75.3756 291° West 379 436 22,000  Level New York Center
10:24AM 41.6769 -75.5089 291° West 379 436 22,000  Level New York Center
10:25AM 41.7111 -75.6392 289° West 379 436 22,000  Level New York Center
10:26AM 41.7494 -75.7697 292° West 379 436 22,000  Level New York Center
10:27AM 41.7911 -75.9147 291° West 379 436 22,000 -240 Level New York Center
10:28AM 41.8269 -76.0456 290° West 379 436 21,600 -900 Descending New York Center
10:29AM 41.8608 -76.1708 290° West 374 430 20,200 -1,500 Descending New York Center
10:30AM 41.8947 -76.2961 290° West 374 430 18,700 -1,260 Descending New York Center
10:31AM 41.9286 -76.4161 291° West 361 415 17,800 -1,200 Descending New York Center
10:32AM 41.9625 -76.5389 290° West 356 410 16,400 -900 Descending New York Center
10:33AM 41.9958 -76.6619 290° West 351 404 16,000 -240 Descending New York Center
10:34AM 42.0258 -76.7706 290° West 356 410 16,000  Level New York Center
10:35AM 42.0756 -76.9489 291° West 360 414 16,000  Level Cleveland Center
10:36AM 42.1592 -77.0228 327° Northwest 352 405 16,000  Level Cleveland Center
10:37AM 42.2633 -77.0169 North 329 379 16,000  Level Cleveland Center
10:38AM 42.3717 -77.0136 North 353 406 16,000  Level Cleveland Center
10:39AM 42.4756 -77.0078 North 364 419 16,000 -120 Level Cleveland Center
10:40AM 42.5708 -77.0475 343° North 364 419 15,800 -600 Descending Cleveland Center
10:41AM 42.6314 -77.1203 319° Northwest 353 406 14,900 -1,200 Descending Cleveland Center
10:42AM 42.7175 -77.2172 320° Northwest 350 403 13,500 -1,500 Descending Cleveland Center
10:43AM 42.7758 -77.2850 320° Northwest 323 372 11,900 -1,800 Descending Cleveland Center
10:44AM 42.8447 -77.3606 321° Northwest 282 325 10,100 -1,740 Descending Cleveland Center
10:45AM 42.8986 -77.4258 318° Northwest 248 285 8,500 -1,680 Descending Cleveland Center
10:46AM 42.9500 -77.4800 322° Northwest 253 291 6,600 -2,100 Descending Cleveland Center
10:47AM 42.9931 -77.5289 320° Northwest 237 273 4,700 -2,400 Descending Cleveland Center
10:47AM 43.0017 -77.5369 326° Northwest 240 276 4,200 -1,620 Descending Cleveland Center
10:48AM 43.0483 -77.5744 330° Northwest 233 268 3,100 -1,320 Descending Cleveland Center
10:48AM 43.0589 -77.5797 340° North 240 276 2,900 -540 Descending Cleveland Center
10:49AM 43.1072 -77.5917 350° North 201 231 2,600 -420 Descending Cleveland Center